Time;durP1;ratioP1;P1;durP2;ratioP2;P2;SDS_P1;SDS_P2;PMS_P1;PMS_P2;Temp;Humidity;BMP_temperature;BMP_pressure;BME280_temperature;BME280_humidity;BME280_pressure;Samples;Min_cycle;Max_cycle;Signal;HPM_P1;HPM_P2
2021/01/19 00:01:14;;;;;;;0.20;0.20;;;-0.70;99.90;;;;;;6242195;22;20011;-89
2021/01/19 00:03:40;;;;;;;0.20;0.20;;;-0.70;99.90;;;;;;6242046;23;20537;-89
2021/01/19 00:06:06;;;;;;;1.38;1.27;;;-0.70;99.90;;;;;;6240276;23;20123;-89
2021/01/19 00:08:33;;;;;;;0.22;0.22;;;-0.80;99.90;;;;;;6242561;22;20010;-89
2021/01/19 00:11:00;;;;;;;0.10;0.10;;;-0.90;99.90;;;;;;6239519;23;20513;-89
2021/01/19 00:13:26;;;;;;;;;;;-0.90;99.90;;;;;;6243122;22;20569;-89
2021/01/19 00:15:52;;;;;;;2.23;2.07;;;-0.90;99.90;;;;;;6240141;23;19910;-89
2021/01/19 00:18:18;;;;;;;0.25;0.25;;;-0.80;99.90;;;;;;6241298;22;20012;-89
2021/01/19 00:20:44;;;;;;;0.10;0.10;;;-0.80;99.90;;;;;;6241540;22;20453;-88
2021/01/19 00:23:12;;;;;;;0.63;0.63;;;-0.80;99.90;;;;;;6241633;22;20016;-89
2021/01/19 00:25:41;;;;;;;1.52;1.42;;;-0.70;99.90;;;;;;6241932;22;20000;-89
2021/01/19 00:28:07;;;;;;;0.30;0.30;;;-0.90;99.90;;;;;;6240886;22;20010;-88
2021/01/19 00:30:33;;;;;;;0.20;0.20;;;-0.80;99.90;;;;;;6241913;22;20516;-87
2021/01/19 00:32:59;;;;;;;0.98;0.98;;;-0.90;99.90;;;;;;6239044;23;20008;-88
2021/01/19 00:35:25;;;;;;;1.00;0.93;;;-1.00;99.90;;;;;;6242319;23;20087;-89
2021/01/19 00:37:51;;;;;;;0.75;0.75;;;-1.00;99.90;;;;;;6242280;22;20011;-89
2021/01/19 00:40:17;;;;;;;0.47;0.47;;;-0.90;99.90;;;;;;6241461;22;20004;-89
2021/01/19 00:42:43;;;;;;;15.48;1.30;;;-0.90;99.90;;;;;;6240539;23;20008;-88
2021/01/19 00:45:09;;;;;;;0.20;0.20;;;-1.00;99.90;;;;;;6242351;22;20079;-89
2021/01/19 00:47:35;;;;;;;0.30;0.30;;;-0.90;99.90;;;;;;6242423;22;20003;-89
2021/01/19 00:50:01;;;;;;;0.40;0.40;;;-1.00;99.90;;;;;;6241353;22;20004;-89
2021/01/19 00:52:27;;;;;;;0.25;0.25;;;-1.10;99.90;;;;;;6242009;22;20003;-89
2021/01/19 00:54:53;;;;;;;0.60;0.60;;;-1.10;99.90;;;;;;6242062;22;20000;-89
2021/01/19 00:57:19;;;;;;;0.20;0.20;;;-1.00;99.90;;;;;;6241026;22;20008;-88
2021/01/19 00:59:44;;;;;;;5.50;2.92;;;-0.90;99.90;;;;;;6241424;22;20008;-89
2021/01/19 01:02:10;;;;;;;0.22;0.22;;;-1.00;99.90;;;;;;6241433;22;20392;-88
2021/01/19 01:04:36;;;;;;;0.63;0.63;;;-1.00;99.90;;;;;;6241552;23;20395;-89
2021/01/19 01:07:02;;;;;;;0.10;0.10;;;-1.20;99.90;;;;;;6242083;23;20016;-89
2021/01/19 01:09:27;;;;;;;0.10;0.10;;;-1.00;99.90;;;;;;6239951;23;20008;-88
2021/01/19 01:11:53;;;;;;;0.20;0.20;;;-0.90;99.90;;;;;;6240025;23;20380;-88
2021/01/19 01:14:19;;;;;;;0.45;0.45;;;-1.10;99.90;;;;;;6239956;23;20008;-88
2021/01/19 01:16:45;;;;;;;1.00;0.65;;;-1.10;99.90;;;;;;6241828;22;20008;-88
2021/01/19 01:19:10;;;;;;;0.20;0.20;;;-1.00;99.90;;;;;;6241463;22;20484;-87
2021/01/19 01:21:39;;;;;;;0.20;0.20;;;-1.20;99.90;;;;;;6239634;23;20616;-88
2021/01/19 01:24:07;;;;;;;0.10;0.10;;;-1.00;99.90;;;;;;6241039;23;20460;-88
2021/01/19 01:26:34;;;;;;;0.10;0.10;;;-1.00;99.90;;;;;;6241114;22;20731;-88
2021/01/19 01:29:00;;;;;;;0.63;0.63;;;-1.10;99.90;;;;;;6239111;23;20007;-88
2021/01/19 01:31:26;;;;;;;0.10;0.10;;;-1.20;99.90;;;;;;6238952;23;20039;-88
2021/01/19 01:33:51;;;;;;;1.88;1.73;;;-1.20;99.90;;;;;;6240895;23;20007;-88
2021/01/19 01:36:17;;;;;;;1.00;1.00;;;-1.30;99.90;;;;;;6240994;22;20446;-89
2021/01/19 01:38:43;;;;;;;0.40;0.40;;;-1.40;99.90;;;;;;6240983;23;20011;-88
2021/01/19 01:41:13;;;;;;;0.22;0.22;;;-1.40;99.90;;;;;;6239955;23;20012;-89
2021/01/19 01:43:39;;;;;;;0.10;0.10;;;-1.40;99.90;;;;;;6240820;22;20086;-89
2021/01/19 01:46:05;;;;;;;0.35;0.35;;;-1.50;1.00;;;;;;6241305;23;20453;-89
2021/01/19 01:48:31;;;;;;;1.27;1.23;;;-1.60;1.00;;;;;;6239225;23;20055;-89
2021/01/19 01:50:57;;;;;;;0.20;0.20;;;-1.60;1.00;;;;;;6238438;23;20243;-88
2021/01/19 01:53:23;;;;;;;0.10;0.10;;;-1.60;1.00;;;;;;6239598;23;20000;-89
2021/01/19 01:55:50;;;;;;;0.85;0.85;;;-1.70;1.00;;;;;;6240908;22;20011;-89
2021/01/19 01:58:15;;;;;;;0.10;0.10;;;-1.70;1.00;;;;;;6241632;22;20093;-88
2021/01/19 02:00:41;;;;;;;2.35;2.25;;;-1.50;24.40;;;;;;6240434;22;20442;-88
2021/01/19 02:03:07;;;;;;;0.20;0.20;;;-1.60;49.00;;;;;;6241402;22;20426;-89
2021/01/19 02:05:33;;;;;;;0.68;0.68;;;-1.70;22.40;;;;;;6239561;23;20700;-89
2021/01/19 02:08:18;;;;;;;4.43;1.83;;;-1.70;30.10;;;;;;6241050;22;20006;-88
2021/01/19 02:11:05;;;;;;;0.60;0.60;;;-1.50;93.20;;;;;;6240969;22;20081;-89
2021/01/19 02:13:40;;;;;;;0.10;0.10;;;-1.50;99.90;;;;;;6241090;22;20007;-88
2021/01/19 02:16:52;;;;;;;0.85;0.85;;;-1.40;99.90;;;;;;6241114;23;20560;-89
2021/01/19 02:19:40;;;;;;;0.20;0.20;;;-1.40;99.90;;;;;;6118911;23;20484;-88
2021/01/19 02:22:43;;;;;;;0.20;0.20;;;-1.40;99.90;;;;;;6118947;23;20010;-89
2021/01/19 02:25:32;;;;;;;0.20;0.20;;;-1.50;99.90;;;;;;6117708;23;20364;-88
2021/01/19 02:28:15;;;;;;;0.10;0.10;;;-1.60;99.90;;;;;;6118577;23;20038;-88
2021/01/19 02:31:11;;;;;;;1.52;1.42;;;-1.50;99.90;;;;;;6119130;23;20471;-88
2021/01/19 02:34:00;;;;;;;0.28;0.28;;;-1.40;99.90;;;;;;6094897;23;20025;-88
2021/01/19 02:36:40;;;;;;;0.47;0.47;;;-1.60;99.90;;;;;;6119347;23;20013;-88
2021/01/19 02:39:06;;;;;;;0.17;0.17;;;-1.60;99.90;;;;;;6118314;23;20057;-88
2021/01/19 02:41:33;;;;;;;0.50;0.50;;;-1.60;99.90;;;;;;6119471;23;20010;-90
2021/01/19 02:44:10;;;;;;;0.68;0.68;;;-1.60;99.90;;;;;;6118749;23;20017;-89
2021/01/19 02:46:36;;;;;;;0.30;0.30;;;-1.60;99.90;;;;;;6119193;23;20368;-89
2021/01/19 02:49:02;;;;;;;1.02;1.00;;;-1.50;99.90;;;;;;6118286;23;20013;-88
2021/01/19 02:51:28;;;;;;;0.10;0.10;;;-1.60;99.90;;;;;;6119759;23;20002;-90
2021/01/19 02:53:54;;;;;;;0.13;0.13;;;-1.60;99.90;;;;;;6220879;23;20227;-90
2021/01/19 02:56:40;;;;;;;0.10;0.10;;;-1.50;99.90;;;;;;6242258;22;20087;-90
2021/01/19 02:59:30;;;;;;;0.43;0.43;;;-1.60;99.90;;;;;;6242832;22;20004;-90
2021/01/19 03:02:09;;;;;;;1.23;1.23;;;-1.60;99.90;;;;;;6242816;22;20008;-90
2021/01/19 03:04:37;;;;;;;1.05;0.95;;;-1.60;99.90;;;;;;6242720;22;20341;-89
2021/01/19 03:07:06;;;;;;;1.85;1.58;;;-1.60;99.90;;;;;;6242418;22;20077;-89
2021/01/19 03:09:35;;;;;;;0.10;0.10;;;-1.70;99.90;;;;;;6241688;22;20000;-89
2021/01/19 03:12:02;;;;;;;0.30;0.30;;;-1.70;99.90;;;;;;6240967;23;20004;-89
2021/01/19 03:14:29;;;;;;;0.35;0.35;;;-1.80;99.90;;;;;;6241556;22;20004;-89
2021/01/19 03:17:07;;;;;;;0.10;0.10;;;-1.80;99.90;;;;;;6242191;22;20010;-89
2021/01/19 03:19:41;;;;;;;0.20;0.20;;;-1.90;99.90;;;;;;6241733;22;20439;-89
2021/01/19 03:22:08;;;;;;;1.13;1.10;;;-1.90;99.90;;;;;;6240529;23;20008;-89
2021/01/19 03:24:34;;;;;;;0.40;0.40;;;-1.90;99.90;;;;;;6241696;22;20019;-89
2021/01/19 03:27:00;;;;;;;0.40;0.40;;;-1.80;99.90;;;;;;6242501;22;20080;-89
2021/01/19 03:29:25;;;;;;;0.10;0.10;;;-1.90;99.90;;;;;;6240499;23;20019;-89
2021/01/19 03:31:51;;;;;;;0.10;0.10;;;-1.80;99.90;;;;;;6241026;22;20023;-89
2021/01/19 03:34:17;;;;;;;0.60;0.60;;;-1.90;99.90;;;;;;6241626;22;20027;-89
2021/01/19 03:36:43;;;;;;;0.40;0.40;;;-1.80;99.90;;;;;;6241118;22;20563;-89
2021/01/19 03:39:09;;;;;;;0.70;0.70;;;-1.90;99.90;;;;;;6241227;22;20008;-88
2021/01/19 03:41:35;;;;;;;2.92;1.13;;;-1.80;99.90;;;;;;6240712;22;20428;-88
2021/01/19 03:44:01;;;;;;;0.75;0.75;;;-1.80;99.90;;;;;;6241032;22;20451;-88
2021/01/19 03:46:26;;;;;;;0.20;0.20;;;-1.70;99.90;;;;;;6240878;22;20027;-88
2021/01/19 03:48:52;;;;;;;0.55;0.55;;;-1.70;1.00;;;;;;6240790;23;20001;-90
2021/01/19 03:51:22;;;;;;;0.10;0.10;;;-1.70;1.00;;;;;;6242124;22;20066;-90
2021/01/19 03:53:49;;;;;;;0.20;0.20;;;-1.70;1.00;;;;;;6242299;22;20477;-88
2021/01/19 03:56:14;;;;;;;0.20;0.20;;;-1.70;1.00;;;;;;6243659;22;20015;-89
2021/01/19 03:58:40;;;;;;;0.57;0.57;;;-1.70;1.00;;;;;;6242067;23;20079;-87
2021/01/19 04:01:06;;;;;;;2.45;2.10;;;-1.90;1.00;;;;;;6242260;22;20597;-89
2021/01/19 04:03:32;;;;;;;0.28;0.28;;;-1.80;99.90;;;;;;6242950;22;20000;-90
2021/01/19 04:05:58;;;;;;;0.10;0.10;;;-1.80;99.90;;;;;;6242347;22;20015;-89
2021/01/19 04:08:23;;;;;;;0.10;0.10;;;-1.90;99.90;;;;;;6242775;22;20027;-88
2021/01/19 04:10:49;;;;;;;0.55;0.55;;;-1.80;99.90;;;;;;6242536;22;20499;-88
2021/01/19 04:13:19;;;;;;;0.50;0.50;;;-1.70;99.90;;;;;;6242675;22;20450;-88
2021/01/19 04:15:47;;;;;;;7.22;3.03;;;-1.80;99.90;;;;;;6242353;22;20350;-88
2021/01/19 04:18:14;;;;;;;0.10;0.10;;;-1.80;99.90;;;;;;6240780;23;20038;-88
2021/01/19 04:20:39;;;;;;;;;;;-1.80;99.90;;;;;;6243136;22;20008;-88
2021/01/19 04:23:05;;;;;;;0.30;0.30;;;-1.80;99.90;;;;;;6242186;22;19918;-87
2021/01/19 04:25:31;;;;;;;0.20;0.20;;;-1.80;99.90;;;;;;6240560;23;20016;-88
2021/01/19 04:27:57;;;;;;;0.75;0.75;;;-1.90;99.90;;;;;;6241883;22;20035;-88
2021/01/19 04:30:23;;;;;;;0.20;0.20;;;-1.80;99.90;;;;;;6240760;23;20004;-89
2021/01/19 04:32:49;;;;;;;0.30;0.30;;;-1.90;99.90;;;;;;6242538;22;20010;-87
2021/01/19 04:35:15;;;;;;;0.20;0.20;;;-1.80;99.90;;;;;;6242019;23;19996;-87
2021/01/19 04:37:42;;;;;;;0.10;0.10;;;-1.80;99.90;;;;;;6242210;22;20004;-88
2021/01/19 04:40:09;;;;;;;0.28;0.28;;;-1.90;98.90;;;;;;6241757;22;20004;-88
2021/01/19 04:42:36;;;;;;;0.28;0.28;;;-1.90;99.90;;;;;;6240670;23;20011;-89
2021/01/19 04:45:04;;;;;;;0.30;0.30;;;-1.90;95.20;;;;;;6241944;22;20000;-88
2021/01/19 04:47:33;;;;;;;0.88;0.77;;;-1.90;94.50;;;;;;6242477;22;20197;-88
2021/01/19 04:50:01;;;;;;;0.20;0.20;;;-1.90;83.60;;;;;;6241412;22;20000;-88
2021/01/19 04:52:29;;;;;;;0.20;0.20;;;-2.00;35.20;;;;;;6242196;22;20000;-89
2021/01/19 04:55:11;;;;;;;0.40;0.40;;;-2.00;30.10;;;;;;6240155;23;20032;-88
2021/01/19 04:57:39;;;;;;;0.68;0.68;;;-2.10;27.90;;;;;;6242246;22;20024;-88
2021/01/19 05:00:13;;;;;;;0.90;0.90;;;-2.10;11.50;;;;;;6240302;23;20054;-88
2021/01/19 05:02:54;;;;;;;0.28;0.28;;;-2.10;23.40;;;;;;6241693;22;20004;-89
2021/01/19 05:05:38;;;;;;;0.77;0.77;;;-2.00;46.10;;;;;;6241274;22;20011;-89
2021/01/19 05:08:16;;;;;;;0.65;0.57;;;-1.90;1.00;;;;;;6242451;23;20004;-89
2021/01/19 05:10:53;;;;;;;2.67;1.88;;;-2.00;1.00;;;;;;6242508;22;20004;-89
2021/01/19 05:13:28;;;;;;;0.10;0.10;;;-2.00;1.00;;;;;;6242768;22;20462;-89
2021/01/19 05:15:56;;;;;;;0.80;0.73;;;-1.90;1.00;;;;;;6243138;23;20008;-89
2021/01/19 05:18:22;;;;;;;1.10;1.10;;;-2.00;1.00;;;;;;6242485;22;20106;-90
2021/01/19 05:20:51;;;;;;;0.43;0.43;;;-1.80;1.00;;;;;;6243642;22;20032;-89
2021/01/19 05:23:22;;;;;;;0.20;0.20;;;-1.70;99.90;;;;;;6241135;23;20354;-89
2021/01/19 05:25:52;;;;;;;0.20;0.20;;;-2.00;99.90;;;;;;6241141;23;20535;-88
2021/01/19 05:28:29;;;;;;;0.10;0.10;;;-1.70;99.90;;;;;;6241574;22;20374;-89
2021/01/19 05:30:55;;;;;;;0.20;0.20;;;-1.60;99.90;;;;;;6242153;22;20324;-89
2021/01/19 05:33:21;;;;;;;0.20;0.20;;;-1.70;99.90;;;;;;6242585;22;20051;-89
2021/01/19 05:35:46;;;;;;;0.43;0.43;;;-1.80;99.90;;;;;;6240818;23;20095;-89
2021/01/19 05:38:12;;;;;;;1.05;0.52;;;-2.00;99.90;;;;;;6242561;22;20010;-90
2021/01/19 05:40:44;;;;;;;0.10;0.10;;;-1.90;99.90;;;;;;6240354;23;20007;-90
2021/01/19 05:43:13;;;;;;;0.40;0.40;;;-1.90;99.90;;;;;;6241746;22;20067;-89
2021/01/19 05:45:52;;;;;;;0.60;0.60;;;-1.80;99.90;;;;;;6238785;23;20620;-91
2021/01/19 05:48:18;;;;;;;0.73;0.73;;;-1.90;99.90;;;;;;6242231;22;20352;-91
2021/01/19 05:50:44;;;;;;;0.20;0.20;;;-1.90;99.90;;;;;;6240920;22;19996;-88
2021/01/19 05:53:14;;;;;;;2.03;1.73;;;-1.90;99.90;;;;;;6242538;22;20000;-88
2021/01/19 05:55:43;;;;;;;0.38;0.38;;;-1.90;99.90;;;;;;6242235;22;20004;-88
2021/01/19 05:58:13;;;;;;;0.90;0.20;;;-2.00;99.90;;;;;;6241398;23;20053;-87
2021/01/19 06:00:42;;;;;;;1.35;0.63;;;-1.90;99.90;;;;;;6242171;22;20004;-88
2021/01/19 06:03:18;;;;;;;0.43;0.43;;;-2.10;99.90;;;;;;6241148;23;20038;-89
2021/01/19 06:05:44;;;;;;;0.85;0.85;;;-2.00;99.90;;;;;;6241888;23;20008;-88
2021/01/19 06:08:11;;;;;;;0.20;0.20;;;-2.00;99.90;;;;;;6243006;23;20000;-88
2021/01/19 06:10:38;;;;;;;0.28;0.28;;;-2.00;99.90;;;;;;6240875;23;20350;-88
2021/01/19 06:13:14;;;;;;;0.22;0.22;;;-2.00;99.90;;;;;;6240638;22;20007;-87
2021/01/19 06:15:41;;;;;;;0.20;0.20;;;-2.00;99.90;;;;;;6241002;22;20091;-86
2021/01/19 06:18:07;;;;;;;0.30;0.30;;;-1.90;99.90;;;;;;6241301;22;20016;-86
2021/01/19 06:20:43;;;;;;;0.20;0.20;;;-1.90;99.90;;;;;;6241770;22;20719;-90
2021/01/19 06:23:11;;;;;;;0.57;0.57;;;-1.80;99.90;;;;;;6243534;23;20031;-91
2021/01/19 06:25:37;;;;;;;29.50;1.55;;;-1.90;99.90;;;;;;6243953;23;20296;-91
2021/01/19 06:28:13;;;;;;;0.20;0.20;;;-1.90;99.90;;;;;;6243531;23;20088;-90
2021/01/19 06:30:38;;;;;;;0.10;0.10;;;-1.90;99.90;;;;;;6243004;23;20026;-90
2021/01/19 06:33:05;;;;;;;0.10;0.10;;;-1.90;99.90;;;;;;6243918;22;20005;-90
2021/01/19 06:35:40;;;;;;;0.57;0.57;;;-1.80;99.90;;;;;;6243938;22;20004;-90
2021/01/19 06:38:06;;;;;;;0.55;0.55;;;-1.70;99.90;;;;;;6244217;22;20004;-89
2021/01/19 06:40:35;;;;;;;0.85;0.85;;;-1.80;99.90;;;;;;6243935;22;20468;-90
2021/01/19 06:43:05;;;;;;;0.20;0.20;;;-1.90;99.90;;;;;;6244883;22;20000;-91
2021/01/19 06:45:32;;;;;;;0.65;0.65;;;-1.90;99.90;;;;;;6244077;22;19997;-91
2021/01/19 06:48:00;;;;;;;;;;;-2.00;99.90;;;;;;6244151;22;19996;-89
2021/01/19 06:50:28;;;;;;;0.68;0.63;;;-2.00;99.90;;;;;;6241638;23;20352;-90
2021/01/19 06:53:23;;;;;;;0.65;0.65;;;-2.10;99.90;;;;;;6242592;23;20051;-89
2021/01/19 06:55:57;;;;;;;0.57;0.57;;;-2.10;99.90;;;;;;6242949;23;20008;-89
2021/01/19 06:58:55;;;;;;;2.17;2.00;;;-1.90;99.90;;;;;;6245198;22;20373;-89
2021/01/19 07:01:24;;;;;;;0.10;0.10;;;-1.80;99.90;;;;;;6245206;22;20409;-91
2021/01/19 07:04:24;;;;;;;0.10;0.10;;;-1.80;99.90;;;;;;6241580;23;20012;-89
2021/01/19 07:07:17;;;;;;;0.10;0.10;;;-1.90;99.90;;;;;;6242415;22;20450;-90
2021/01/19 07:10:07;;;;;;;0.17;0.17;;;-2.00;99.90;;;;;;6242597;22;20007;-89
2021/01/19 07:12:56;;;;;;;0.68;0.68;;;-1.90;99.90;;;;;;6241758;23;20015;-89
2021/01/19 07:15:41;;;;;;;0.85;0.85;;;-2.00;99.90;;;;;;6243111;22;20054;-89
2021/01/19 07:18:41;;;;;;;1.07;1.00;;;-1.80;99.90;;;;;;6241650;23;20714;-90
2021/01/19 07:21:08;;;;;;;0.10;0.10;;;-1.90;99.90;;;;;;6240644;23;20011;-88
2021/01/19 07:23:49;;;;;;;0.20;0.20;;;-2.00;99.90;;;;;;6241720;22;20782;-89
2021/01/19 07:26:19;;;;;;;0.20;0.20;;;-1.90;99.90;;;;;;6240056;23;20004;-89
2021/01/19 07:28:46;;;;;;;0.15;0.15;;;-1.80;99.90;;;;;;6240437;23;20004;-89
2021/01/19 07:31:16;;;;;;;0.22;0.22;;;-1.70;99.90;;;;;;6240215;23;20008;-91
2021/01/19 07:33:44;;;;;;;0.20;0.20;;;-1.60;99.90;;;;;;6243352;23;20024;-90
2021/01/19 07:36:21;;;;;;;0.10;0.10;;;-1.70;99.90;;;;;;6245567;22;20031;-90
2021/01/19 07:38:47;;;;;;;0.52;0.52;;;-1.70;99.90;;;;;;6241352;23;20004;-91
2021/01/19 07:41:34;;;;;;;0.20;0.20;;;-1.80;99.90;;;;;;6242046;23;20046;-91
2021/01/19 07:44:01;;;;;;;0.10;0.10;;;-1.70;99.90;;;;;;6242257;23;20012;-90
2021/01/19 07:46:29;;;;;;;0.15;0.15;;;-1.60;99.90;;;;;;6243033;22;20011;-91
2021/01/19 07:49:05;;;;;;;0.10;0.10;;;-1.60;99.90;;;;;;6243340;22;20446;-91
2021/01/19 07:51:42;;;;;;;0.65;0.65;;;-1.70;99.90;;;;;;6242592;22;20008;-91
2021/01/19 07:54:08;;;;;;;;;;;-1.60;99.90;;;;;;6241408;23;20054;-89
2021/01/19 07:56:34;;;;;;;0.55;0.55;;;-0.90;99.90;;;;;;6242201;22;20527;-89
2021/01/19 07:59:01;;;;;;;0.15;0.15;;;1.00;99.90;;;;;;6240583;23;20022;-89
2021/01/19 08:01:28;;;;;;;0.20;0.20;;;2.10;99.90;;;;;;6240359;23;20012;-89
2021/01/19 08:03:55;;;;;;;0.20;0.20;;;2.70;99.90;;;;;;6240146;23;20008;-90
2021/01/19 08:06:31;;;;;;;;;;;2.60;99.90;;;;;;6241242;23;20094;-89
2021/01/19 08:09:08;;;;;;;0.10;0.10;;;2.60;99.90;;;;;;6242234;22;20381;-90
2021/01/19 08:11:34;;;;;;;0.10;0.10;;;2.60;99.90;;;;;;6242279;22;20000;-89
2021/01/19 08:14:00;;;;;;;0.10;0.10;;;2.80;99.90;;;;;;6240505;23;20037;-90
2021/01/19 08:16:28;;;;;;;1.13;1.13;;;3.40;99.90;;;;;;6242048;22;20023;-90
2021/01/19 08:19:14;;;;;;;0.30;0.30;;;3.50;99.90;;;;;;6240145;23;20039;-89
2021/01/19 08:21:51;;;;;;;0.22;0.22;;;4.50;99.90;;;;;;6241932;22;20008;-89
2021/01/19 08:24:22;;;;;;;0.10;0.10;;;4.60;99.90;;;;;;6241937;22;20020;-88
2021/01/19 08:26:49;;;;;;;0.10;0.10;;;5.80;99.90;;;;;;6241710;22;20012;-89
2021/01/19 08:29:19;;;;;;;0.35;0.35;;;5.40;99.90;;;;;;6241570;22;20075;-89
2021/01/19 08:31:51;;;;;;;2.35;1.85;;;5.50;99.90;;;;;;6241355;22;20004;-89
2021/01/19 08:34:18;;;;;;;0.57;0.57;;;5.20;99.90;;;;;;6239896;23;20012;-89
2021/01/19 08:36:46;;;;;;;0.20;0.20;;;5.40;99.90;;;;;;6241758;22;20027;-89
2021/01/19 08:39:14;;;;;;;0.10;0.10;;;5.90;99.90;;;;;;6241412;22;20004;-89
2021/01/19 08:41:43;;;;;;;0.10;0.10;;;6.50;99.90;;;;;;6241971;22;20004;-90
2021/01/19 08:44:10;;;;;;;4.18;0.63;;;6.60;99.90;;;;;;6242184;22;20015;-90
2021/01/19 08:46:37;;;;;;;0.20;0.20;;;7.20;99.90;;;;;;6241819;22;20008;-90
2021/01/19 08:49:12;;;;;;;0.55;0.55;;;6.50;99.90;;;;;;6241595;22;20000;-90
2021/01/19 08:51:42;;;;;;;0.10;0.10;;;7.60;99.90;;;;;;6240323;23;20103;-89
2021/01/19 08:54:09;;;;;;;0.30;0.30;;;7.80;99.90;;;;;;6240013;23;20096;-89
2021/01/19 08:56:38;;;;;;;;;;;7.90;99.90;;;;;;6241427;22;20015;-90
2021/01/19 08:59:04;;;;;;;0.10;0.10;;;7.60;99.90;;;;;;6241506;22;20628;-90
2021/01/19 09:01:29;;;;;;;0.00;0.00;;;7.70;99.90;;;;;;6241314;22;20039;-91
2021/01/19 09:04:02;;;;;;;0.80;0.77;;;8.50;99.90;;;;;;6240899;22;20323;-88
2021/01/19 09:06:28;;;;;;;0.10;0.10;;;8.90;99.90;;;;;;6239518;23;20363;-90
2021/01/19 09:09:00;;;;;;;0.10;0.10;;;8.80;99.90;;;;;;6241449;23;20007;-90
2021/01/19 09:11:28;;;;;;;0.15;0.15;;;8.00;99.90;;;;;;6241806;22;20077;-90
2021/01/19 09:14:03;;;;;;;0.10;0.10;;;8.10;99.90;;;;;;6241246;22;20004;-91
2021/01/19 09:16:31;;;;;;;0.10;0.10;;;8.70;99.90;;;;;;6239732;23;20018;-90
2021/01/19 09:18:58;;;;;;;0.35;0.35;;;8.60;99.90;;;;;;6241322;22;20011;-91
2021/01/19 09:21:25;;;;;;;0.10;0.10;;;9.40;99.90;;;;;;6239634;23;20063;-91
2021/01/19 09:23:51;;;;;;;0.55;0.55;;;10.60;99.90;;;;;;6240833;22;20335;-90
2021/01/19 09:26:16;;;;;;;0.45;0.45;;;9.50;99.90;;;;;;6241049;22;20008;-89
2021/01/19 09:28:42;;;;;;;0.10;0.10;;;10.10;99.90;;;;;;6241266;23;20000;-90
2021/01/19 09:31:15;;;;;;;1.10;1.10;;;11.20;99.90;;;;;;6240639;23;20008;-89
2021/01/19 09:33:42;;;;;;;0.13;0.13;;;10.00;99.90;;;;;;6240983;22;20350;-90
2021/01/19 09:36:09;;;;;;;0.05;0.05;;;11.00;99.90;;;;;;6239341;23;20015;-90
2021/01/19 09:38:35;;;;;;;;;;;9.80;99.90;;;;;;6241913;22;20008;-90
2021/01/19 09:41:02;;;;;;;0.10;0.10;;;11.10;99.90;;;;;;6240853;22;20344;-90
2021/01/19 09:43:28;;;;;;;0.10;0.10;;;11.10;99.90;;;;;;6240981;22;20089;-90
2021/01/19 09:46:02;;;;;;;0.57;0.57;;;11.30;99.90;;;;;;6239096;23;20783;-91
2021/01/19 09:48:30;;;;;;;0.55;0.55;;;11.30;99.90;;;;;;6241211;22;20019;-90
2021/01/19 09:51:04;;;;;;;0.80;0.80;;;10.80;99.90;;;;;;6240834;22;20024;-90
2021/01/19 09:53:32;;;;;;;0.32;0.32;;;11.70;99.90;;;;;;6239292;23;20011;-90
2021/01/19 09:56:13;;;;;;;0.20;0.20;;;12.90;99.90;;;;;;6239299;23;20008;-90
2021/01/19 09:58:38;;;;;;;0.55;0.55;;;12.30;99.90;;;;;;6241315;22;20031;-90
2021/01/19 10:01:05;;;;;;;1.10;1.00;;;11.50;99.90;;;;;;6238877;23;20008;-90
2021/01/19 10:03:34;;;;;;;0.10;0.10;;;11.60;99.90;;;;;;6239917;23;20012;-90
2021/01/19 10:06:07;;;;;;;0.00;0.00;;;11.50;99.90;;;;;;6241252;22;20008;-90
2021/01/19 10:08:37;;;;;;;0.20;0.20;;;11.70;99.90;;;;;;6241659;22;20011;-91
2021/01/19 10:11:03;;;;;;;1.00;0.75;;;11.80;99.90;;;;;;6239278;23;20010;-91
2021/01/19 10:13:33;;;;;;;0.30;0.30;;;11.60;99.90;;;;;;6241553;22;20074;-91
2021/01/19 10:16:03;;;;;;;0.52;0.30;;;12.70;99.90;;;;;;6240140;23;20019;-92
2021/01/19 10:18:32;;;;;;;0.10;0.10;;;13.60;99.90;;;;;;6242009;22;20061;-92
2021/01/19 10:20:58;;;;;;;0.10;0.10;;;14.00;99.90;;;;;;6240778;23;20012;-92
2021/01/19 10:23:31;;;;;;;0.20;0.20;;;14.90;99.90;;;;;;6242121;22;20028;-92
2021/01/19 10:26:12;;;;;;;0.10;0.10;;;16.80;99.90;;;;;;6242720;22;20028;-92
2021/01/19 10:28:44;;;;;;;0.35;0.35;;;16.60;99.90;;;;;;6242103;22;20023;-92
2021/01/19 10:31:45;;;;;;;0.08;0.08;;;18.00;99.90;;;;;;6239923;23;20008;-92
2021/01/19 10:34:14;;;;;;;0.10;0.10;;;19.60;99.90;;;;;;6241677;22;20000;-91
2021/01/19 10:36:55;;;;;;;0.38;0.38;;;19.00;99.90;;;;;;6240226;23;20008;-91
2021/01/19 10:39:21;;;;;;;0.10;0.10;;;18.40;99.90;;;;;;6239444;23;20557;-91
2021/01/19 10:41:49;;;;;;;0.10;0.10;;;17.30;99.90;;;;;;6241277;22;20504;-92
2021/01/19 10:44:15;;;;;;;0.10;0.10;;;18.70;99.90;;;;;;6239644;23;20472;-92
2021/01/19 10:46:42;;;;;;;0.20;0.20;;;19.50;99.90;;;;;;6239775;23;20015;-92
2021/01/19 10:49:15;;;;;;;0.10;0.10;;;18.60;99.90;;;;;;6239798;23;20004;-92
2021/01/19 10:51:44;;;;;;;0.00;0.00;;;17.40;99.90;;;;;;6241847;22;20079;-92
2021/01/19 10:54:13;;;;;;;0.60;0.60;;;17.20;99.90;;;;;;6240032;23;20008;-91
2021/01/19 10:56:46;;;;;;;0.10;0.10;;;16.60;99.90;;;;;;6241856;22;20012;-92
2021/01/19 10:59:12;;;;;;;0.45;0.45;;;18.60;99.90;;;;;;6241550;22;20015;-92
2021/01/19 11:01:39;;;;;;;0.43;0.43;;;18.80;99.90;;;;;;6240483;23;20091;-92
2021/01/19 11:04:06;;;;;;;0.13;0.13;;;18.80;99.90;;;;;;6241631;22;20043;-92
2021/01/19 11:06:32;;;;;;;;;;;18.80;99.90;;;;;;6243179;22;20438;-93
2021/01/19 11:08:58;;;;;;;;;;;18.10;99.90;;;;;;6243371;22;19980;-93
2021/01/19 11:11:24;;;;;;;0.30;0.30;;;18.20;99.90;;;;;;6243257;22;19982;-93
2021/01/19 11:13:50;;;;;;;0.10;0.10;;;18.40;99.90;;;;;;6242229;23;20001;-93
2021/01/19 11:16:16;;;;;;;0.05;0.05;;;18.60;99.90;;;;;;6241643;23;20271;-92
2021/01/19 11:18:41;;;;;;;0.20;0.20;;;17.10;99.90;;;;;;6243005;22;20008;-93
2021/01/19 11:21:10;;;;;;;0.20;0.20;;;16.70;99.90;;;;;;6243177;22;20008;-93
2021/01/19 11:23:35;;;;;;;0.00;0.00;;;18.60;99.90;;;;;;6241945;22;20023;-92
2021/01/19 11:26:01;;;;;;;0.10;0.10;;;15.40;99.90;;;;;;6241766;22;20007;-92
2021/01/19 11:28:27;;;;;;;0.52;0.35;;;15.70;99.90;;;;;;6241513;22;20888;-93
2021/01/19 11:30:53;;;;;;;0.10;0.10;;;15.50;99.90;;;;;;6240110;23;20015;-92
2021/01/19 11:33:19;;;;;;;0.10;0.10;;;16.10;99.90;;;;;;6240222;23;20004;-92
2021/01/19 11:35:45;;;;;;;0.10;0.10;;;16.10;99.90;;;;;;6241978;22;20003;-93
2021/01/19 11:38:11;;;;;;;0.10;0.10;;;15.60;99.90;;;;;;6240263;23;20030;-92
2021/01/19 11:40:36;;;;;;;0.50;0.50;;;13.70;99.90;;;;;;6241527;23;20011;-93
2021/01/19 11:43:02;;;;;;;0.10;0.10;;;13.70;99.90;;;;;;6240736;23;20084;-92
2021/01/19 11:45:28;;;;;;;0.23;0.23;;;16.00;99.90;;;;;;6241413;23;20004;-93
2021/01/19 11:47:54;;;;;;;1.45;0.45;;;16.10;99.90;;;;;;6240284;23;20542;-93
2021/01/19 11:50:20;;;;;;;0.10;0.10;;;18.60;99.90;;;;;;6240290;23;20028;-92
2021/01/19 11:52:47;;;;;;;0.43;0.43;;;18.20;99.90;;;;;;6239737;23;20012;-92
2021/01/19 11:55:13;;;;;;;0.20;0.20;;;17.70;99.90;;;;;;6240213;23;20568;-92
2021/01/19 11:57:39;;;;;;;0.10;0.10;;;18.40;99.90;;;;;;6240284;23;20134;-93
2021/01/19 12:00:09;;;;;;;0.10;0.10;;;13.50;99.90;;;;;;6240546;23;20036;-93
2021/01/19 12:02:35;;;;;;;0.10;0.10;;;10.80;99.90;;;;;;6241664;22;20008;-92
2021/01/19 12:05:02;;;;;;;0.00;0.00;;;10.90;99.90;;;;;;6241591;23;20012;-92
2021/01/19 12:07:28;;;;;;;1.08;0.65;;;11.10;99.90;;;;;;6241497;22;20040;-92
2021/01/19 12:09:53;;;;;;;0.52;0.52;;;10.20;99.90;;;;;;6241927;22;20338;-93
2021/01/19 12:12:19;;;;;;;0.20;0.20;;;9.90;99.90;;;;;;6239831;23;20004;-93
2021/01/19 12:14:45;;;;;;;0.10;0.10;;;9.80;99.90;;;;;;6241336;23;20087;-92
2021/01/19 12:17:13;;;;;;;0.10;0.10;;;9.80;99.90;;;;;;6241957;23;20016;-92
2021/01/19 12:19:39;;;;;;;0.75;0.75;;;9.80;99.90;;;;;;6241735;23;20015;-93
2021/01/19 12:22:04;;;;;;;0.10;0.10;;;9.60;99.90;;;;;;6242589;23;20457;-93
2021/01/19 12:24:30;;;;;;;0.10;0.10;;;9.70;99.90;;;;;;6242246;23;20020;-93
2021/01/19 12:26:57;;;;;;;0.00;0.00;;;9.70;99.90;;;;;;6243446;22;20069;-93
2021/01/19 12:29:25;;;;;;;;;;;9.70;99.90;;;;;;6243054;23;20083;-93
2021/01/19 12:31:51;;;;;;;0.10;0.10;;;9.60;99.90;;;;;;6242440;23;19899;-92
2021/01/19 12:34:18;;;;;;;0.10;0.10;;;9.50;99.90;;;;;;6243926;22;20027;-93
2021/01/19 12:36:46;;;;;;;0.32;0.25;;;9.60;99.90;;;;;;6242797;23;20019;-93
2021/01/19 12:39:11;;;;;;;0.10;0.10;;;9.50;99.90;;;;;;6244109;22;20004;-93
2021/01/19 12:41:37;;;;;;;0.10;0.10;;;9.50;99.90;;;;;;6243776;22;20014;-92
2021/01/19 12:44:04;;;;;;;0.20;0.20;;;9.60;99.90;;;;;;6243850;22;20004;-92
2021/01/19 12:46:30;;;;;;;0.10;0.10;;;9.50;99.90;;;;;;6242265;23;20009;-92
2021/01/19 12:48:56;;;;;;;0.00;0.00;;;9.40;99.90;;;;;;6243770;22;20054;-92
2021/01/19 12:51:22;;;;;;;0.10;0.10;;;9.60;99.90;;;;;;6243831;22;20079;-93
2021/01/19 12:53:49;;;;;;;0.10;0.10;;;9.60;99.90;;;;;;6243742;22;20503;-93
2021/01/19 12:56:16;;;;;;;0.00;0.00;;;9.50;99.90;;;;;;6241938;23;20035;-92
2021/01/19 12:58:43;;;;;;;0.03;0.03;;;9.50;99.90;;;;;;6241060;23;20098;-93
2021/01/19 13:01:10;;;;;;;0.10;0.10;;;9.60;99.90;;;;;;6241300;23;20008;-93
2021/01/19 13:03:36;;;;;;;0.10;0.10;;;9.50;99.90;;;;;;6241636;23;20015;-92
2021/01/19 13:06:03;;;;;;;0.05;0.05;;;9.50;99.90;;;;;;6241625;23;20008;-92